createdAt,value
2022-08-23T00:02:26.780Z,3.37
2022-08-23T00:05:07.569Z,4.33
2022-08-23T00:07:42.131Z,4.20
2022-08-23T00:10:11.984Z,3.57
2022-08-23T00:12:39.819Z,2.13
2022-08-23T00:15:09.678Z,2.17
2022-08-23T00:17:37.361Z,4.20
2022-08-23T00:20:07.457Z,6.13
2022-08-23T00:22:35.202Z,5.23
2022-08-23T00:25:02.679Z,5.67
2022-08-23T00:27:30.224Z,5.33
2022-08-23T00:29:58.456Z,4.87
2022-08-23T00:32:29.441Z,2.63
2022-08-23T00:34:57.148Z,4.30
2022-08-23T00:37:25.031Z,3.97
2022-08-23T00:39:52.627Z,3.97
2022-08-23T00:42:32.053Z,6.03
2022-08-23T00:45:00.586Z,2.40
2022-08-23T00:47:28.076Z,7.30
2022-08-23T00:49:59.411Z,4.77
2022-08-23T00:52:41.210Z,6.00
2022-08-23T00:55:08.972Z,3.57
2022-08-23T00:57:36.669Z,3.50
2022-08-23T01:00:07.133Z,3.27
2022-08-23T01:02:34.793Z,8.17
2022-08-23T01:05:03.051Z,4.77
2022-08-23T01:07:36.622Z,5.37
2022-08-23T01:10:07.664Z,5.13
2022-08-23T01:12:38.284Z,6.43
2022-08-23T01:15:10.591Z,6.93
2022-08-23T01:17:46.185Z,2.97
2022-08-23T01:20:15.695Z,7.27
2022-08-23T01:22:43.311Z,4.57
2022-08-23T01:25:12.667Z,4.77
2022-08-23T01:27:40.709Z,2.53
2022-08-23T01:30:10.424Z,4.43
2022-08-23T01:32:41.833Z,4.87
2022-08-23T01:35:10.091Z,4.33
2022-08-23T01:37:37.676Z,4.03
2022-08-23T01:40:05.684Z,5.43
2022-08-23T01:42:33.165Z,3.53
2022-08-23T01:45:00.788Z,4.10
2022-08-23T01:47:28.483Z,7.00
2022-08-23T01:49:56.070Z,4.03
2022-08-23T01:52:23.608Z,9.13
2022-08-23T01:54:51.160Z,4.67
2022-08-23T01:57:18.662Z,5.83
2022-08-23T01:59:46.200Z,4.00
2022-08-23T02:02:13.717Z,17.07
2022-08-23T02:04:41.295Z,4.70
2022-08-23T02:07:08.812Z,3.67
2022-08-23T02:09:36.319Z,4.27
2022-08-23T02:12:03.993Z,4.73
2022-08-23T02:14:31.481Z,6.83
2022-08-23T02:17:04.254Z,5.20
2022-08-23T02:19:35.966Z,5.87
2022-08-23T02:22:03.713Z,4.53
2022-08-23T02:24:31.441Z,4.53
2022-08-23T02:27:01.867Z,4.10
2022-08-23T02:29:30.231Z,5.90
2022-08-23T02:31:58.864Z,3.20
2022-08-23T02:34:27.546Z,5.30
2022-08-23T02:36:55.714Z,7.10
2022-08-23T02:39:23.393Z,8.20
2022-08-23T02:41:51.064Z,5.13
2022-08-23T02:44:18.601Z,4.57
2022-08-23T02:46:46.523Z,12.30
2022-08-23T02:49:14.417Z,4.57
2022-08-23T02:51:41.966Z,10.07
2022-08-23T02:54:09.690Z,4.73
2022-08-23T02:56:37.211Z,7.40
2022-08-23T02:59:05.515Z,7.87
2022-08-23T03:01:34.877Z,8.23
2022-08-23T03:04:03.141Z,9.27
2022-08-23T03:06:30.691Z,6.83
2022-08-23T03:08:58.506Z,17.47
2022-08-23T03:11:26.226Z,8.83
2022-08-23T03:13:54.456Z,7.97
2022-08-23T03:16:21.943Z,11.67
2022-08-23T03:18:50.328Z,7.97
2022-08-23T03:21:18.101Z,6.83
2022-08-23T03:23:45.911Z,8.70
2022-08-23T03:26:13.931Z,8.17
2022-08-23T03:28:42.504Z,6.80
2022-08-23T03:31:10.739Z,6.77
2022-08-23T03:33:38.640Z,10.93
2022-08-23T03:36:07.511Z,9.40
2022-08-23T03:38:35.470Z,13.57
2022-08-23T03:41:02.968Z,10.47
2022-08-23T03:43:30.616Z,7.37
2022-08-23T03:45:58.178Z,8.00
2022-08-23T03:48:25.674Z,8.07
2022-08-23T03:50:54.591Z,7.13
2022-08-23T03:53:23.030Z,6.13
2022-08-23T03:55:51.362Z,9.70
2022-08-23T03:58:18.926Z,5.30
2022-08-23T04:00:46.631Z,5.77
2022-08-23T04:03:14.132Z,6.93
2022-08-23T04:05:41.629Z,7.57
2022-08-23T04:08:12.085Z,6.53
2022-08-23T04:10:39.610Z,12.00
2022-08-23T04:13:07.850Z,12.50
2022-08-23T04:15:35.969Z,9.47
2022-08-23T04:18:03.622Z,8.27
2022-08-23T04:20:31.408Z,9.10
2022-08-23T04:22:58.995Z,10.57
2022-08-23T04:25:34.803Z,13.17
2022-08-23T04:28:03.626Z,13.37
2022-08-23T04:30:31.852Z,31.53
2022-08-23T04:32:59.969Z,29.17
2022-08-23T04:35:29.662Z,12.63
2022-08-23T04:37:57.167Z,10.63
2022-08-23T04:40:24.777Z,15.13
2022-08-23T04:42:52.287Z,10.73
2022-08-23T04:45:19.828Z,10.50
2022-08-23T04:47:47.367Z,7.97
2022-08-23T04:50:14.967Z,7.40
2022-08-23T04:52:42.592Z,10.90
2022-08-23T04:55:10.197Z,6.97
2022-08-23T04:57:37.674Z,7.27
2022-08-23T05:00:06.557Z,10.03
2022-08-23T05:02:34.054Z,11.83
2022-08-23T05:05:01.568Z,8.30
2022-08-23T05:07:41.602Z,8.30
2022-08-23T05:10:12.097Z,9.50
2022-08-23T05:12:39.722Z,6.97
2022-08-23T05:15:08.555Z,9.13
2022-08-23T05:17:36.835Z,9.17
2022-08-23T05:20:06.165Z,7.90
2022-08-23T05:22:34.929Z,7.87
2022-08-23T05:25:02.543Z,6.83
2022-08-23T05:27:30.016Z,11.70
2022-08-23T05:29:57.167Z,8.63
2022-08-23T05:32:24.530Z,8.50
2022-08-23T05:34:51.785Z,12.67
2022-08-23T05:37:19.019Z,17.17
2022-08-23T05:39:46.306Z,7.37
2022-08-23T05:42:15.787Z,6.80
2022-08-23T05:44:44.026Z,7.33
2022-08-23T05:47:12.700Z,10.87
2022-08-23T05:49:42.832Z,11.83
2022-08-23T05:52:12.757Z,16.23
2022-08-23T05:54:40.781Z,13.50
2022-08-23T05:57:09.317Z,9.90
2022-08-23T05:59:36.544Z,8.53
2022-08-23T06:02:04.143Z,6.40
2022-08-23T06:04:31.827Z,18.23
2022-08-23T06:06:59.385Z,8.53
2022-08-23T06:09:26.883Z,5.80
2022-08-23T06:11:54.568Z,11.80
2022-08-23T06:14:21.749Z,11.05
2022-08-23T06:16:54.978Z,6.30
2022-08-23T06:19:24.173Z,11.13
2022-08-23T06:21:52.054Z,13.80
2022-08-23T06:24:20.315Z,10.33
2022-08-23T06:26:50.286Z,6.53
2022-08-23T06:29:19.856Z,11.57
2022-08-23T06:31:51.344Z,10.27
2022-08-23T06:34:19.875Z,7.23
2022-08-23T06:36:50.485Z,13.47
2022-08-23T06:39:18.819Z,11.07
2022-08-23T06:41:46.377Z,8.60
2022-08-23T06:44:13.849Z,5.87
2022-08-23T06:46:41.485Z,13.73
2022-08-23T06:49:09.440Z,5.90
2022-08-23T06:51:41.420Z,11.03
2022-08-23T06:54:11.342Z,15.50
2022-08-23T06:56:40.089Z,9.57
2022-08-23T06:59:08.564Z,10.77
2022-08-23T07:01:51.560Z,10.63
2022-08-23T07:04:24.018Z,9.73
2022-08-23T07:06:51.529Z,10.13
2022-08-23T07:09:19.254Z,14.07
2022-08-23T07:11:46.948Z,7.40
2022-08-23T07:14:15.856Z,9.10
2022-08-23T07:16:50.887Z,14.13
2022-08-23T07:19:20.375Z,10.83
2022-08-23T07:21:48.768Z,14.73
2022-08-23T07:24:18.036Z,6.77
2022-08-23T07:26:47.257Z,8.43
2022-08-23T07:29:15.964Z,7.40
2022-08-23T07:31:49.475Z,12.67
2022-08-23T07:34:17.449Z,9.50
2022-08-23T07:36:46.709Z,9.87
2022-08-23T07:39:15.757Z,6.27
2022-08-23T07:41:44.660Z,10.60
2022-08-23T07:44:13.297Z,6.40
2022-08-23T07:46:46.947Z,8.23
2022-08-23T07:49:14.970Z,8.70
2022-08-23T07:51:46.897Z,9.20
2022-08-23T07:54:15.225Z,6.67
2022-08-23T07:56:42.943Z,12.87
2022-08-23T07:59:11.055Z,6.07
2022-08-23T08:01:41.065Z,12.67
2022-08-23T08:04:08.531Z,7.80
2022-08-23T08:07:04.840Z,7.00
2022-08-23T08:09:37.191Z,11.30
2022-08-23T08:12:04.802Z,5.67
2022-08-23T08:14:32.106Z,7.17
2022-08-23T08:17:04.441Z,12.73
2022-08-23T08:19:31.629Z,8.57
2022-08-23T08:21:58.879Z,9.17
2022-08-23T08:24:26.062Z,10.20
2022-08-23T08:26:53.264Z,6.43
2022-08-23T08:29:20.503Z,11.83
2022-08-23T08:31:54.101Z,7.20
2022-08-23T08:34:24.702Z,10.67
2022-08-23T08:36:55.039Z,8.70
2022-08-23T08:39:25.453Z,11.77
2022-08-23T08:42:30.350Z,8.37
2022-08-23T08:45:09.358Z,5.90
2022-08-23T08:47:51.080Z,9.73
2022-08-23T08:50:24.448Z,8.47
2022-08-23T08:53:00.845Z,7.50
2022-08-23T08:55:38.509Z,5.17
2022-08-23T08:58:07.234Z,6.03
2022-08-23T09:00:38.427Z,6.53
2022-08-23T09:03:12.895Z,6.10
2022-08-23T09:05:52.486Z,8.93
2022-08-23T09:08:41.342Z,8.63
2022-08-23T09:11:35.609Z,9.47
2022-08-23T09:14:27.361Z,6.60
2022-08-23T09:17:01.956Z,9.93
2022-08-23T09:19:33.576Z,7.70
2022-08-23T09:22:10.208Z,5.10
2022-08-23T09:24:40.221Z,9.90
2022-08-23T09:27:09.473Z,6.33
2022-08-23T09:29:39.039Z,8.07
2022-08-23T09:32:26.032Z,6.57
2022-08-23T09:35:06.255Z,6.80
2022-08-23T09:37:45.985Z,5.37
2022-08-23T09:40:33.720Z,8.23
2022-08-23T09:43:13.518Z,9.17
2022-08-23T09:45:50.421Z,9.27
2022-08-23T09:48:37.952Z,6.50
2022-08-23T09:51:08.242Z,8.93
2022-08-23T09:53:40.904Z,8.80
2022-08-23T09:56:16.705Z,7.30
2022-08-23T09:58:45.351Z,5.03
2022-08-23T10:01:26.489Z,6.27
2022-08-23T10:04:12.722Z,6.40
2022-08-23T10:06:40.902Z,6.00
2022-08-23T10:09:09.563Z,16.63
2022-08-23T10:11:39.136Z,4.70
2022-08-23T10:14:07.810Z,5.13
2022-08-23T10:16:37.227Z,9.17
2022-08-23T10:19:04.676Z,8.80
2022-08-23T10:21:35.244Z,7.47
2022-08-23T10:24:23.769Z,9.60
2022-08-23T10:26:59.977Z,9.70
2022-08-23T10:29:38.580Z,13.97
2022-08-23T10:32:11.908Z,7.07
2022-08-23T10:34:39.450Z,7.43
2022-08-23T10:37:09.678Z,7.17
2022-08-23T10:39:43.147Z,8.27
2022-08-23T10:42:29.147Z,10.87
2022-08-23T10:45:17.380Z,5.90
2022-08-23T10:48:03.710Z,5.47
2022-08-23T10:50:39.112Z,5.03
2022-08-23T10:53:15.900Z,4.73
2022-08-23T10:55:50.072Z,3.47
2022-08-23T10:58:20.848Z,4.80
2022-08-23T11:00:48.468Z,6.33
2022-08-23T11:03:37.398Z,4.40
2022-08-23T11:06:23.731Z,6.37
2022-08-23T11:08:58.626Z,5.47
2022-08-23T11:11:38.350Z,4.93
2022-08-23T11:14:08.101Z,4.80
2022-08-23T11:16:35.736Z,3.93
2022-08-23T11:19:03.320Z,6.83
2022-08-23T11:21:41.905Z,8.63
2022-08-23T11:24:12.818Z,9.83
2022-08-23T11:26:40.546Z,4.87
2022-08-23T11:29:08.129Z,4.93
2022-08-23T11:31:38.845Z,8.10
2022-08-23T11:34:41.748Z,4.83
2022-08-23T11:37:21.288Z,5.03
2022-08-23T11:39:57.831Z,4.57
2022-08-23T11:42:27.512Z,8.03
2022-08-23T11:44:55.068Z,4.60
2022-08-23T11:47:29.707Z,3.57
2022-08-23T11:50:17.479Z,3.53
2022-08-23T11:52:45.030Z,6.97
2022-08-23T11:55:29.617Z,5.63
2022-08-23T11:58:03.298Z,4.17
2022-08-23T12:00:31.051Z,3.92
2022-08-23T12:03:03.370Z,6.32
2022-08-23T12:05:39.930Z,4.43
2022-08-23T12:08:07.440Z,5.13
2022-08-23T12:10:43.861Z,5.13
2022-08-23T12:13:18.881Z,4.15
2022-08-23T12:16:05.751Z,6.43
2022-08-23T12:18:47.538Z,5.55
2022-08-23T12:21:26.576Z,5.10
2022-08-23T12:24:13.484Z,5.95
2022-08-23T12:26:47.588Z,4.15
2022-08-23T12:29:35.007Z,7.53
2022-08-23T12:32:18.342Z,4.32
2022-08-23T12:34:55.059Z,3.70
2022-08-23T12:37:36.425Z,3.65
2022-08-23T12:40:08.838Z,2.95
2022-08-23T12:42:39.389Z,5.07
2022-08-23T12:45:22.540Z,4.88
2022-08-23T12:47:59.319Z,2.22
2022-08-23T12:50:39.524Z,4.07
2022-08-23T12:53:11.701Z,4.03
2022-08-23T12:55:45.995Z,5.45
2022-08-23T12:58:16.340Z,5.10
2022-08-23T13:00:54.821Z,3.28
2022-08-23T13:03:24.818Z,4.10
2022-08-23T13:06:02.222Z,3.10
2022-08-23T13:08:37.897Z,7.93
2022-08-23T13:11:08.609Z,1.85
2022-08-23T13:13:39.908Z,6.20
2022-08-23T13:16:36.957Z,8.98
2022-08-23T13:19:31.225Z,2.00
2022-08-23T13:22:19.539Z,3.08
2022-08-23T13:25:27.972Z,2.45
2022-08-23T13:27:59.744Z,5.30
2022-08-23T13:30:34.317Z,3.10
2022-08-23T13:33:07.709Z,4.78
2022-08-23T13:35:39.796Z,2.20
2022-08-23T13:38:07.109Z,8.65
2022-08-23T13:40:55.223Z,2.17
2022-08-23T13:43:29.686Z,6.00
2022-08-23T13:46:10.395Z,2.88
2022-08-23T13:48:43.851Z,1.45
2022-08-23T13:51:41.395Z,3.30
2022-08-23T13:54:14.452Z,5.70
2022-08-23T13:56:56.377Z,2.72
2022-08-23T13:59:31.141Z,7.38
2022-08-23T14:02:11.584Z,5.22
2022-08-23T14:04:39.105Z,4.35
2022-08-23T14:07:07.216Z,2.10
2022-08-23T14:09:34.811Z,4.90
2022-08-23T14:12:06.201Z,4.70
2022-08-23T14:14:38.003Z,4.22
2022-08-23T14:17:06.168Z,2.42
2022-08-23T14:22:25.981Z,5.07
2022-08-23T14:24:53.190Z,2.35
2022-08-23T14:27:20.389Z,2.70
2022-08-23T14:29:47.584Z,2.55
2022-08-23T14:32:14.852Z,3.10
2022-08-23T14:34:42.063Z,2.92
2022-08-23T14:39:56.492Z,1.98
2022-08-23T14:42:24.346Z,2.30
2022-08-23T14:44:51.638Z,4.88
2022-08-23T14:47:19.235Z,3.03
2022-08-23T14:49:47.157Z,1.52
2022-08-23T14:52:15.598Z,2.88
2022-08-23T14:54:42.979Z,2.45
2022-08-23T14:57:10.557Z,1.95
2022-08-23T14:59:37.872Z,3.10
2022-08-23T15:02:08.392Z,4.68
2022-08-23T15:04:35.887Z,2.58
2022-08-23T15:07:21.682Z,2.85
2022-08-23T15:09:51.008Z,2.67
2022-08-23T15:15:12.410Z,5.40
2022-08-23T15:17:58.549Z,3.20
2022-08-23T15:20:32.440Z,1.73
2022-08-23T15:23:05.919Z,2.15
2022-08-23T15:25:37.171Z,1.30
2022-08-23T15:28:12.691Z,3.55
2022-08-23T15:30:41.862Z,2.17
2022-08-23T15:33:10.161Z,1.27
2022-08-23T15:35:43.834Z,3.08
2022-08-23T15:38:13.841Z,1.35
2022-08-23T15:40:41.199Z,3.50
2022-08-23T15:43:08.774Z,2.53
2022-08-23T15:45:37.001Z,2.25
2022-08-23T15:48:14.550Z,2.92
2022-08-23T15:50:45.637Z,2.55
2022-08-23T15:53:13.920Z,2.88
2022-08-23T15:55:42.182Z,4.35
2022-08-23T15:58:18.394Z,4.28
2022-08-23T16:00:46.760Z,5.38
2022-08-23T16:03:19.852Z,7.85
2022-08-23T16:05:52.443Z,2.45
2022-08-23T16:08:26.386Z,1.80
2022-08-23T16:10:54.356Z,1.20
2022-08-23T16:13:28.336Z,3.25
2022-08-23T16:15:55.557Z,1.20
2022-08-23T16:18:23.127Z,4.53
2022-08-23T16:20:54.263Z,3.05
2022-08-23T16:23:22.630Z,2.58
2022-08-23T16:25:50.085Z,1.50
2022-08-23T16:28:17.474Z,3.17
2022-08-23T16:30:44.698Z,5.45
2022-08-23T16:33:12.011Z,2.17
2022-08-23T16:35:39.239Z,5.03
2022-08-23T16:38:06.512Z,2.85
2022-08-23T16:40:33.713Z,3.60
2022-08-23T16:43:01.093Z,1.60
2022-08-23T16:45:28.370Z,3.13
2022-08-23T16:47:55.826Z,2.78
2022-08-23T16:50:24.291Z,1.77
2022-08-23T16:52:52.850Z,1.63
2022-08-23T16:55:21.544Z,2.77
2022-08-23T16:57:50.247Z,1.37
2022-08-23T17:00:21.018Z,1.27
2022-08-23T17:02:49.801Z,1.90
2022-08-23T17:05:21.848Z,1.38
2022-08-23T17:07:52.112Z,2.27
2022-08-23T17:10:21.970Z,1.95
2022-08-23T17:12:53.365Z,1.30
2022-08-23T17:15:24.055Z,1.30
2022-08-23T17:17:54.523Z,1.37
2022-08-23T17:20:25.677Z,4.63
2022-08-23T17:22:56.054Z,1.77
2022-08-23T17:25:27.629Z,2.13
2022-08-23T17:27:58.384Z,2.20
2022-08-23T17:30:29.202Z,1.70
2022-08-23T17:32:59.895Z,3.00
2022-08-23T17:35:33.972Z,1.60
2022-08-23T17:38:05.266Z,2.17
2022-08-23T17:40:40.542Z,7.40
2022-08-23T17:43:09.942Z,0.83
2022-08-23T17:45:42.921Z,1.97
2022-08-23T17:48:12.268Z,0.80
2022-08-23T17:50:42.675Z,4.10
2022-08-23T17:53:12.327Z,1.07
2022-08-23T17:55:41.500Z,0.83
2022-08-23T17:58:12.181Z,2.53
2022-08-23T18:00:41.978Z,2.20
2022-08-23T18:03:11.257Z,4.37
2022-08-23T18:05:39.304Z,2.33
2022-08-23T18:08:07.055Z,1.70
2022-08-23T18:10:34.614Z,1.40
2022-08-23T18:13:02.311Z,3.60
2022-08-23T18:15:29.945Z,1.50
2022-08-23T18:17:59.599Z,2.60
2022-08-23T18:20:27.863Z,2.10
2022-08-23T18:22:56.531Z,1.80
2022-08-23T18:25:26.500Z,1.47
2022-08-23T18:27:54.174Z,4.73
2022-08-23T18:30:21.747Z,5.73
2022-08-23T18:32:49.450Z,1.87
2022-08-23T18:35:17.699Z,2.30
2022-08-23T18:37:45.219Z,1.20
2022-08-23T18:40:13.002Z,3.50
2022-08-23T18:42:40.546Z,4.10
2022-08-23T18:45:08.701Z,3.33
2022-08-23T18:47:36.282Z,1.37
2022-08-23T18:50:05.516Z,1.47
2022-08-23T18:52:33.030Z,1.10
2022-08-23T18:55:00.593Z,2.07
2022-08-23T18:57:28.300Z,3.93
2022-08-23T18:59:55.784Z,1.47
2022-08-23T19:02:23.414Z,3.43
2022-08-23T19:04:52.376Z,2.53
2022-08-23T19:07:22.099Z,2.10
2022-08-23T19:09:50.330Z,6.77
2022-08-23T19:12:17.461Z,2.83
2022-08-23T19:14:44.692Z,1.30
2022-08-23T19:17:11.975Z,2.73
2022-08-23T19:19:39.210Z,2.70
2022-08-23T19:22:06.446Z,1.70
2022-08-23T19:24:33.799Z,2.23
2022-08-23T19:27:01.698Z,3.53
2022-08-23T19:29:28.930Z,4.63
2022-08-23T19:31:57.183Z,1.40
2022-08-23T19:34:26.724Z,2.20
2022-08-23T19:37:00.667Z,2.00
2022-08-23T19:39:29.296Z,3.60
2022-08-23T19:41:56.991Z,3.67
2022-08-23T19:44:24.602Z,2.00
2022-08-23T19:46:52.077Z,3.73
2022-08-23T19:49:19.570Z,9.43
2022-08-23T19:51:47.108Z,4.50
2022-08-23T19:54:14.607Z,3.57
2022-08-23T19:56:46.477Z,3.63
2022-08-23T19:59:15.238Z,4.60
2022-08-23T20:01:42.885Z,4.13
2022-08-23T20:04:10.475Z,4.67
2022-08-23T20:06:38.034Z,2.07
2022-08-23T20:09:06.243Z,3.77
2022-08-23T20:11:33.826Z,3.63
2022-08-23T20:14:01.406Z,2.87
2022-08-23T20:16:29.487Z,5.83
2022-08-23T20:18:57.040Z,2.40
2022-08-23T20:21:24.963Z,3.57
2022-08-23T20:23:52.974Z,6.07
2022-08-23T20:26:20.325Z,4.93
2022-08-23T20:28:59.243Z,8.23
2022-08-23T20:31:33.470Z,4.53
2022-08-23T20:34:00.807Z,6.40
2022-08-23T20:36:28.477Z,3.30
2022-08-23T20:38:57.274Z,4.17
2022-08-23T20:41:30.504Z,7.63
2022-08-23T20:43:58.648Z,5.03
2022-08-23T20:46:26.018Z,6.97
2022-08-23T20:48:54.367Z,4.50
2022-08-23T20:51:21.739Z,3.97
2022-08-23T20:53:48.990Z,4.73
2022-08-23T20:56:17.072Z,3.33
2022-08-23T20:58:44.865Z,4.70
2022-08-23T21:01:12.861Z,3.37
2022-08-23T21:03:40.813Z,4.93
2022-08-23T21:06:30.260Z,2.57
2022-08-23T21:08:59.293Z,3.77
2022-08-23T21:11:28.459Z,2.87
2022-08-23T21:13:56.947Z,3.23
2022-08-23T21:16:25.371Z,2.03
2022-08-23T21:18:55.338Z,5.67
2022-08-23T21:21:24.198Z,2.70
2022-08-23T21:23:51.844Z,4.00
2022-08-23T21:26:19.662Z,2.23
2022-08-23T21:28:46.843Z,4.47
2022-08-23T21:31:21.426Z,3.07
2022-08-23T21:33:48.918Z,4.80
2022-08-23T21:36:17.904Z,5.63
2022-08-23T21:38:45.459Z,5.57
2022-08-23T21:41:27.116Z,3.70
2022-08-23T21:43:54.716Z,2.80
2022-08-23T21:46:21.982Z,4.53
2022-08-23T21:48:49.235Z,2.60
2022-08-23T21:51:16.403Z,3.37
2022-08-23T21:53:43.638Z,3.70
2022-08-23T21:56:10.826Z,2.43
2022-08-23T21:58:38.117Z,3.13
2022-08-23T22:01:05.883Z,2.33
2022-08-23T22:03:36.528Z,4.43
2022-08-23T22:06:05.042Z,1.63
2022-08-23T22:08:32.262Z,3.00
2022-08-23T22:11:04.954Z,3.40
2022-08-23T22:13:32.170Z,5.20
2022-08-23T22:15:59.488Z,4.87
2022-08-23T22:18:27.913Z,2.13
2022-08-23T22:20:55.244Z,6.30
2022-08-23T22:23:22.499Z,2.60
2022-08-23T22:25:49.730Z,1.93
2022-08-23T22:28:16.967Z,3.73
2022-08-23T22:30:44.390Z,2.70
2022-08-23T22:33:11.685Z,2.10
2022-08-23T22:35:39.207Z,4.03
2022-08-23T22:38:14.595Z,5.87
2022-08-23T22:40:52.585Z,2.57
2022-08-23T22:43:20.696Z,2.63
2022-08-23T22:45:53.395Z,3.20
2022-08-23T22:48:21.707Z,1.40
2022-08-23T22:50:49.220Z,5.20
2022-08-23T22:53:17.738Z,8.53
2022-08-23T22:55:50.718Z,2.20
2022-08-23T22:58:18.317Z,3.17
2022-08-23T23:00:45.662Z,5.33
2022-08-23T23:03:12.842Z,4.97
2022-08-23T23:05:40.214Z,3.33
2022-08-23T23:08:07.457Z,2.33
2022-08-23T23:10:34.665Z,2.60
2022-08-23T23:13:01.947Z,5.17
2022-08-23T23:15:29.957Z,3.57
2022-08-23T23:17:57.585Z,3.47
2022-08-23T23:20:24.878Z,2.50
2022-08-23T23:22:52.100Z,2.30
2022-08-23T23:25:19.466Z,2.33
2022-08-23T23:27:46.660Z,2.73
2022-08-23T23:30:14.491Z,7.30
2022-08-23T23:32:43.174Z,2.87
2022-08-23T23:35:11.214Z,2.70
2022-08-23T23:37:38.550Z,2.30
2022-08-23T23:40:07.237Z,3.40
2022-08-23T23:42:34.521Z,3.77
2022-08-23T23:45:01.811Z,2.80
2022-08-23T23:47:29.069Z,2.10
2022-08-23T23:49:56.301Z,5.33
2022-08-23T23:52:23.729Z,3.13
2022-08-23T23:54:52.022Z,2.97
2022-08-23T23:57:19.398Z,4.57
2022-08-23T23:59:46.669Z,3.10
